sensor_id;sensor_type;location;lat;lon;timestamp;P1;durP1;ratioP1;P2;durP2;ratioP2
38182;SDS011;23991;52.430;10.586;2023-05-07T00:01:12;14.65;;;9.93;;
38182;SDS011;23991;52.430;10.586;2023-05-07T00:03:38;15.57;;;10.30;;
38182;SDS011;23991;52.430;10.586;2023-05-07T00:06:04;13.25;;;8.82;;
38182;SDS011;23991;52.430;10.586;2023-05-07T00:08:30;15.77;;;9.93;;
38182;SDS011;23991;52.430;10.586;2023-05-07T00:10:55;12.95;;;9.38;;
38182;SDS011;23991;52.430;10.586;2023-05-07T00:13:21;13.02;;;9.38;;
38182;SDS011;23991;52.430;10.586;2023-05-07T00:15:46;16.83;;;10.57;;
38182;SDS011;23991;52.430;10.586;2023-05-07T00:18:12;14.88;;;9.82;;
38182;SDS011;23991;52.430;10.586;2023-05-07T00:20:37;15.43;;;10.57;;
38182;SDS011;23991;52.430;10.586;2023-05-07T00:23:03;15.95;;;10.65;;
38182;SDS011;23991;52.430;10.586;2023-05-07T00:25:28;14.90;;;10.40;;
38182;SDS011;23991;52.430;10.586;2023-05-07T00:27:54;14.65;;;10.63;;
38182;SDS011;23991;52.430;10.586;2023-05-07T00:30:19;14.70;;;10.48;;
38182;SDS011;23991;52.430;10.586;2023-05-07T00:32:45;12.75;;;8.98;;
38182;SDS011;23991;52.430;10.586;2023-05-07T00:35:10;14.63;;;9.57;;
38182;SDS011;23991;52.430;10.586;2023-05-07T00:37:36;13.93;;;9.20;;
38182;SDS011;23991;52.430;10.586;2023-05-07T00:40:02;13.95;;;9.20;;
38182;SDS011;23991;52.430;10.586;2023-05-07T00:42:29;10.98;;;7.72;;
38182;SDS011;23991;52.430;10.586;2023-05-07T00:44:57;13.23;;;8.50;;
38182;SDS011;23991;52.430;10.586;2023-05-07T00:47:23;10.95;;;8.07;;
38182;SDS011;23991;52.430;10.586;2023-05-07T00:49:49;10.77;;;8.10;;
38182;SDS011;23991;52.430;10.586;2023-05-07T00:52:15;14.10;;;8.52;;
38182;SDS011;23991;52.430;10.586;2023-05-07T00:54:42;12.88;;;8.65;;
38182;SDS011;23991;52.430;10.586;2023-05-07T00:57:08;14.02;;;8.50;;
38182;SDS011;23991;52.430;10.586;2023-05-07T00:59:36;11.63;;;8.45;;
38182;SDS011;23991;52.430;10.586;2023-05-07T01:02:02;9.82;;;7.22;;
38182;SDS011;23991;52.430;10.586;2023-05-07T01:04:27;11.00;;;7.57;;
38182;SDS011;23991;52.430;10.586;2023-05-07T01:06:56;11.10;;;7.65;;
38182;SDS011;23991;52.430;10.586;2023-05-07T01:09:25;8.68;;;6.35;;
38182;SDS011;23991;52.430;10.586;2023-05-07T01:11:51;10.75;;;7.60;;
38182;SDS011;23991;52.430;10.586;2023-05-07T01:14:17;10.55;;;7.55;;
38182;SDS011;23991;52.430;10.586;2023-05-07T01:16:44;10.27;;;7.72;;
38182;SDS011;23991;52.430;10.586;2023-05-07T01:19:10;10.80;;;7.80;;
38182;SDS011;23991;52.430;10.586;2023-05-07T01:21:38;13.43;;;7.80;;
38182;SDS011;23991;52.430;10.586;2023-05-07T01:24:09;11.40;;;7.55;;
38182;SDS011;23991;52.430;10.586;2023-05-07T01:26:36;12.55;;;8.13;;
38182;SDS011;23991;52.430;10.586;2023-05-07T01:29:02;13.25;;;8.07;;
38182;SDS011;23991;52.430;10.586;2023-05-07T01:31:28;10.77;;;7.28;;
38182;SDS011;23991;52.430;10.586;2023-05-07T01:33:54;11.38;;;8.15;;
38182;SDS011;23991;52.430;10.586;2023-05-07T01:36:24;12.07;;;7.60;;
38182;SDS011;23991;52.430;10.586;2023-05-07T01:38:52;10.80;;;7.10;;
38182;SDS011;23991;52.430;10.586;2023-05-07T01:41:21;10.70;;;6.57;;
38182;SDS011;23991;52.430;10.586;2023-05-07T01:43:47;11.23;;;6.83;;
38182;SDS011;23991;52.430;10.586;2023-05-07T01:46:13;9.63;;;6.78;;
38182;SDS011;23991;52.430;10.586;2023-05-07T01:48:40;10.30;;;7.07;;
38182;SDS011;23991;52.430;10.586;2023-05-07T01:51:06;10.80;;;6.57;;
38182;SDS011;23991;52.430;10.586;2023-05-07T01:53:36;10.18;;;6.78;;
38182;SDS011;23991;52.430;10.586;2023-05-07T01:56:03;13.35;;;7.70;;
38182;SDS011;23991;52.430;10.586;2023-05-07T01:58:29;9.57;;;7.25;;
38182;SDS011;23991;52.430;10.586;2023-05-07T02:00:54;11.15;;;7.13;;
38182;SDS011;23991;52.430;10.586;2023-05-07T02:03:20;11.02;;;7.70;;
38182;SDS011;23991;52.430;10.586;2023-05-07T02:05:45;9.95;;;7.13;;
38182;SDS011;23991;52.430;10.586;2023-05-07T02:08:11;10.98;;;7.55;;
38182;SDS011;23991;52.430;10.586;2023-05-07T02:10:36;9.60;;;6.90;;
38182;SDS011;23991;52.430;10.586;2023-05-07T02:13:02;14.32;;;7.75;;
38182;SDS011;23991;52.430;10.586;2023-05-07T02:15:27;11.93;;;7.60;;
38182;SDS011;23991;52.430;10.586;2023-05-07T02:18:03;11.23;;;7.07;;
38182;SDS011;23991;52.430;10.586;2023-05-07T02:20:31;11.57;;;7.55;;
38182;SDS011;23991;52.430;10.586;2023-05-07T02:22:56;9.95;;;6.57;;
38182;SDS011;23991;52.430;10.586;2023-05-07T02:25:22;9.57;;;7.10;;
38182;SDS011;23991;52.430;10.586;2023-05-07T02:27:47;9.88;;;6.68;;
38182;SDS011;23991;52.430;10.586;2023-05-07T02:30:13;8.15;;;6.57;;
38182;SDS011;23991;52.430;10.586;2023-05-07T02:32:39;10.05;;;6.85;;
38182;SDS011;23991;52.430;10.586;2023-05-07T02:35:05;12.40;;;6.63;;
38182;SDS011;23991;52.430;10.586;2023-05-07T02:37:31;9.15;;;6.90;;
38182;SDS011;23991;52.430;10.586;2023-05-07T02:39:56;10.48;;;6.88;;
38182;SDS011;23991;52.430;10.586;2023-05-07T02:42:22;10.20;;;7.05;;
38182;SDS011;23991;52.430;10.586;2023-05-07T02:44:47;10.55;;;7.20;;
38182;SDS011;23991;52.430;10.586;2023-05-07T02:47:14;11.85;;;7.50;;
38182;SDS011;23991;52.430;10.586;2023-05-07T02:49:42;11.70;;;7.63;;
38182;SDS011;23991;52.430;10.586;2023-05-07T02:52:08;11.32;;;7.78;;
38182;SDS011;23991;52.430;10.586;2023-05-07T02:54:33;10.73;;;7.82;;
38182;SDS011;23991;52.430;10.586;2023-05-07T02:56:59;9.75;;;7.35;;
38182;SDS011;23991;52.430;10.586;2023-05-07T02:59:25;11.07;;;8.13;;
38182;SDS011;23991;52.430;10.586;2023-05-07T03:01:51;12.70;;;7.78;;
38182;SDS011;23991;52.430;10.586;2023-05-07T03:04:16;10.98;;;7.95;;
38182;SDS011;23991;52.430;10.586;2023-05-07T03:06:42;10.82;;;7.82;;
38182;SDS011;23991;52.430;10.586;2023-05-07T03:09:08;10.82;;;7.78;;
38182;SDS011;23991;52.430;10.586;2023-05-07T03:11:33;11.68;;;7.22;;
38182;SDS011;23991;52.430;10.586;2023-05-07T03:14:00;12.40;;;8.48;;
38182;SDS011;23991;52.430;10.586;2023-05-07T03:16:26;9.93;;;7.30;;
38182;SDS011;23991;52.430;10.586;2023-05-07T03:18:51;11.20;;;7.90;;
38182;SDS011;23991;52.430;10.586;2023-05-07T03:21:17;9.98;;;7.72;;
38182;SDS011;23991;52.430;10.586;2023-05-07T03:23:46;12.40;;;8.40;;
38182;SDS011;23991;52.430;10.586;2023-05-07T03:26:11;10.77;;;8.80;;
38182;SDS011;23991;52.430;10.586;2023-05-07T03:28:37;11.27;;;8.20;;
38182;SDS011;23991;52.430;10.586;2023-05-07T03:31:02;11.80;;;8.25;;
38182;SDS011;23991;52.430;10.586;2023-05-07T03:33:28;10.05;;;8.27;;
38182;SDS011;23991;52.430;10.586;2023-05-07T03:35:53;11.32;;;8.98;;
38182;SDS011;23991;52.430;10.586;2023-05-07T03:38:19;11.43;;;8.68;;
38182;SDS011;23991;52.430;10.586;2023-05-07T03:40:44;10.80;;;8.20;;
38182;SDS011;23991;52.430;10.586;2023-05-07T03:43:10;11.20;;;9.10;;
38182;SDS011;23991;52.430;10.586;2023-05-07T03:45:35;12.82;;;9.65;;
38182;SDS011;23991;52.430;10.586;2023-05-07T03:48:01;12.52;;;9.63;;
38182;SDS011;23991;52.430;10.586;2023-05-07T03:50:26;13.80;;;9.48;;
38182;SDS011;23991;52.430;10.586;2023-05-07T03:52:52;14.93;;;9.63;;
38182;SDS011;23991;52.430;10.586;2023-05-07T03:55:17;11.63;;;8.98;;
38182;SDS011;23991;52.430;10.586;2023-05-07T03:57:43;10.70;;;8.98;;
38182;SDS011;23991;52.430;10.586;2023-05-07T04:00:09;12.40;;;8.73;;
38182;SDS011;23991;52.430;10.586;2023-05-07T04:02:35;12.60;;;8.90;;
38182;SDS011;23991;52.430;10.586;2023-05-07T04:05:00;14.07;;;9.43;;
38182;SDS011;23991;52.430;10.586;2023-05-07T04:07:26;12.50;;;8.75;;
38182;SDS011;23991;52.430;10.586;2023-05-07T04:09:51;11.68;;;8.60;;
38182;SDS011;23991;52.430;10.586;2023-05-07T04:12:17;12.32;;;8.07;;
38182;SDS011;23991;52.430;10.586;2023-05-07T04:14:42;10.40;;;7.93;;
38182;SDS011;23991;52.430;10.586;2023-05-07T04:17:08;10.38;;;7.82;;
38182;SDS011;23991;52.430;10.586;2023-05-07T04:19:34;10.43;;;7.80;;
38182;SDS011;23991;52.430;10.586;2023-05-07T04:22:00;9.70;;;7.30;;
38182;SDS011;23991;52.430;10.586;2023-05-07T04:24:26;10.00;;;7.70;;
38182;SDS011;23991;52.430;10.586;2023-05-07T04:26:51;9.48;;;7.95;;
38182;SDS011;23991;52.430;10.586;2023-05-07T04:29:17;10.00;;;7.60;;
38182;SDS011;23991;52.430;10.586;2023-05-07T04:31:43;9.95;;;7.45;;
38182;SDS011;23991;52.430;10.586;2023-05-07T04:34:09;9.68;;;7.70;;
38182;SDS011;23991;52.430;10.586;2023-05-07T04:36:36;9.38;;;7.03;;
38182;SDS011;23991;52.430;10.586;2023-05-07T04:39:03;10.68;;;7.63;;
38182;SDS011;23991;52.430;10.586;2023-05-07T04:41:28;9.45;;;7.45;;
38182;SDS011;23991;52.430;10.586;2023-05-07T04:43:57;10.27;;;8.02;;
38182;SDS011;23991;52.430;10.586;2023-05-07T04:46:24;10.57;;;7.32;;
38182;SDS011;23991;52.430;10.586;2023-05-07T04:48:49;9.95;;;7.72;;
38182;SDS011;23991;52.430;10.586;2023-05-07T04:51:15;10.85;;;7.80;;
38182;SDS011;23991;52.430;10.586;2023-05-07T04:53:40;10.70;;;7.97;;
38182;SDS011;23991;52.430;10.586;2023-05-07T04:56:07;10.20;;;7.70;;
38182;SDS011;23991;52.430;10.586;2023-05-07T04:58:33;9.57;;;7.53;;
38182;SDS011;23991;52.430;10.586;2023-05-07T05:00:59;9.52;;;7.07;;
38182;SDS011;23991;52.430;10.586;2023-05-07T05:03:25;10.63;;;8.00;;
38182;SDS011;23991;52.430;10.586;2023-05-07T05:05:51;9.80;;;7.38;;
38182;SDS011;23991;52.430;10.586;2023-05-07T05:08:17;9.25;;;7.72;;
38182;SDS011;23991;52.430;10.586;2023-05-07T05:10:43;9.90;;;7.53;;
38182;SDS011;23991;52.430;10.586;2023-05-07T05:13:09;9.25;;;7.07;;
38182;SDS011;23991;52.430;10.586;2023-05-07T05:15:34;9.13;;;7.28;;
38182;SDS011;23991;52.430;10.586;2023-05-07T05:18:00;9.38;;;7.20;;
38182;SDS011;23991;52.430;10.586;2023-05-07T05:20:26;9.60;;;8.00;;
38182;SDS011;23991;52.430;10.586;2023-05-07T05:22:52;9.38;;;7.18;;
38182;SDS011;23991;52.430;10.586;2023-05-07T05:25:17;9.05;;;6.90;;
38182;SDS011;23991;52.430;10.586;2023-05-07T05:27:43;9.55;;;7.05;;
38182;SDS011;23991;52.430;10.586;2023-05-07T05:30:08;8.82;;;6.93;;
38182;SDS011;23991;52.430;10.586;2023-05-07T05:32:34;8.77;;;6.95;;
38182;SDS011;23991;52.430;10.586;2023-05-07T05:35:00;9.13;;;6.47;;
38182;SDS011;23991;52.430;10.586;2023-05-07T05:37:25;9.13;;;6.78;;
38182;SDS011;23991;52.430;10.586;2023-05-07T05:39:51;8.82;;;7.10;;
38182;SDS011;23991;52.430;10.586;2023-05-07T05:42:17;9.60;;;6.70;;
38182;SDS011;23991;52.430;10.586;2023-05-07T05:44:43;8.77;;;7.15;;
38182;SDS011;23991;52.430;10.586;2023-05-07T05:47:08;10.20;;;7.72;;
38182;SDS011;23991;52.430;10.586;2023-05-07T05:49:34;8.95;;;7.22;;
38182;SDS011;23991;52.430;10.586;2023-05-07T05:52:00;9.75;;;6.80;;
38182;SDS011;23991;52.430;10.586;2023-05-07T05:54:25;10.82;;;7.50;;
38182;SDS011;23991;52.430;10.586;2023-05-07T05:56:51;9.75;;;7.47;;
38182;SDS011;23991;52.430;10.586;2023-05-07T05:59:16;10.65;;;8.15;;
38182;SDS011;23991;52.430;10.586;2023-05-07T06:01:42;10.43;;;7.43;;
38182;SDS011;23991;52.430;10.586;2023-05-07T06:04:07;11.60;;;7.50;;
38182;SDS011;23991;52.430;10.586;2023-05-07T06:06:33;9.98;;;7.55;;
38182;SDS011;23991;52.430;10.586;2023-05-07T06:08:58;10.60;;;7.43;;
38182;SDS011;23991;52.430;10.586;2023-05-07T06:11:24;9.82;;;7.85;;
38182;SDS011;23991;52.430;10.586;2023-05-07T06:13:50;10.05;;;8.07;;
38182;SDS011;23991;52.430;10.586;2023-05-07T06:16:15;10.43;;;7.78;;
38182;SDS011;23991;52.430;10.586;2023-05-07T06:18:41;13.18;;;7.75;;
38182;SDS011;23991;52.430;10.586;2023-05-07T06:21:06;10.52;;;7.47;;
38182;SDS011;23991;52.430;10.586;2023-05-07T06:23:32;12.20;;;8.32;;
38182;SDS011;23991;52.430;10.586;2023-05-07T06:25:57;12.07;;;7.63;;
38182;SDS011;23991;52.430;10.586;2023-05-07T06:28:23;11.45;;;8.90;;
38182;SDS011;23991;52.430;10.586;2023-05-07T06:30:48;8.85;;;6.80;;
38182;SDS011;23991;52.430;10.586;2023-05-07T06:33:15;10.95;;;7.70;;
38182;SDS011;23991;52.430;10.586;2023-05-07T06:35:40;10.20;;;7.32;;
38182;SDS011;23991;52.430;10.586;2023-05-07T06:38:06;11.32;;;7.60;;
38182;SDS011;23991;52.430;10.586;2023-05-07T06:40:32;11.00;;;7.78;;
38182;SDS011;23991;52.430;10.586;2023-05-07T06:42:57;9.73;;;7.88;;
38182;SDS011;23991;52.430;10.586;2023-05-07T06:45:23;9.05;;;7.40;;
38182;SDS011;23991;52.430;10.586;2023-05-07T06:47:50;12.57;;;8.27;;
38182;SDS011;23991;52.430;10.586;2023-05-07T06:50:15;10.93;;;7.95;;
38182;SDS011;23991;52.430;10.586;2023-05-07T06:52:42;12.05;;;8.40;;
38182;SDS011;23991;52.430;10.586;2023-05-07T06:55:08;10.57;;;8.35;;
38182;SDS011;23991;52.430;10.586;2023-05-07T06:57:34;14.05;;;8.73;;
38182;SDS011;23991;52.430;10.586;2023-05-07T06:59:59;10.70;;;7.68;;
38182;SDS011;23991;52.430;10.586;2023-05-07T07:02:25;10.30;;;7.40;;
38182;SDS011;23991;52.430;10.586;2023-05-07T07:04:50;10.07;;;7.68;;
38182;SDS011;23991;52.430;10.586;2023-05-07T07:07:16;9.43;;;7.10;;
38182;SDS011;23991;52.430;10.586;2023-05-07T07:09:42;10.00;;;7.72;;
38182;SDS011;23991;52.430;10.586;2023-05-07T07:12:07;8.98;;;7.65;;
38182;SDS011;23991;52.430;10.586;2023-05-07T07:14:32;11.65;;;7.55;;
38182;SDS011;23991;52.430;10.586;2023-05-07T07:16:58;10.60;;;7.30;;
38182;SDS011;23991;52.430;10.586;2023-05-07T07:19:25;11.27;;;7.72;;
38182;SDS011;23991;52.430;10.586;2023-05-07T07:21:51;9.15;;;7.22;;
38182;SDS011;23991;52.430;10.586;2023-05-07T07:24:16;9.95;;;7.45;;
38182;SDS011;23991;52.430;10.586;2023-05-07T07:26:45;9.38;;;7.13;;
38182;SDS011;23991;52.430;10.586;2023-05-07T07:29:11;10.25;;;7.65;;
38182;SDS011;23991;52.430;10.586;2023-05-07T07:31:37;9.07;;;6.80;;
38182;SDS011;23991;52.430;10.586;2023-05-07T07:34:02;9.40;;;7.47;;
38182;SDS011;23991;52.430;10.586;2023-05-07T07:36:28;10.32;;;7.20;;
38182;SDS011;23991;52.430;10.586;2023-05-07T07:38:53;8.85;;;7.10;;
38182;SDS011;23991;52.430;10.586;2023-05-07T07:41:19;7.75;;;6.40;;
38182;SDS011;23991;52.430;10.586;2023-05-07T07:43:45;9.82;;;6.22;;
38182;SDS011;23991;52.430;10.586;2023-05-07T07:46:11;8.38;;;6.50;;
38182;SDS011;23991;52.430;10.586;2023-05-07T07:48:37;8.13;;;5.80;;
38182;SDS011;23991;52.430;10.586;2023-05-07T07:51:03;10.52;;;5.82;;
38182;SDS011;23991;52.430;10.586;2023-05-07T07:53:28;6.22;;;5.07;;
38182;SDS011;23991;52.430;10.586;2023-05-07T07:55:54;9.38;;;5.55;;
38182;SDS011;23991;52.430;10.586;2023-05-07T07:58:19;7.10;;;5.32;;
38182;SDS011;23991;52.430;10.586;2023-05-07T08:00:47;6.85;;;5.03;;
38182;SDS011;23991;52.430;10.586;2023-05-07T08:03:12;6.63;;;5.00;;
38182;SDS011;23991;52.430;10.586;2023-05-07T08:05:39;6.15;;;4.63;;
38182;SDS011;23991;52.430;10.586;2023-05-07T08:08:05;5.85;;;4.63;;
38182;SDS011;23991;52.430;10.586;2023-05-07T08:10:31;8.40;;;5.20;;
38182;SDS011;23991;52.430;10.586;2023-05-07T08:12:59;5.82;;;4.70;;
38182;SDS011;23991;52.430;10.586;2023-05-07T08:15:25;6.10;;;4.38;;
38182;SDS011;23991;52.430;10.586;2023-05-07T08:17:51;6.57;;;4.60;;
38182;SDS011;23991;52.430;10.586;2023-05-07T08:20:16;6.82;;;5.53;;
38182;SDS011;23991;52.430;10.586;2023-05-07T08:22:42;6.63;;;4.70;;
38182;SDS011;23991;52.430;10.586;2023-05-07T08:25:07;6.13;;;4.90;;
38182;SDS011;23991;52.430;10.586;2023-05-07T08:27:33;7.10;;;5.55;;
38182;SDS011;23991;52.430;10.586;2023-05-07T08:29:59;5.93;;;4.90;;
38182;SDS011;23991;52.430;10.586;2023-05-07T08:32:24;6.18;;;4.65;;
38182;SDS011;23991;52.430;10.586;2023-05-07T08:34:50;6.72;;;4.53;;
38182;SDS011;23991;52.430;10.586;2023-05-07T08:37:16;5.43;;;4.68;;
38182;SDS011;23991;52.430;10.586;2023-05-07T08:39:41;6.57;;;5.13;;
38182;SDS011;23991;52.430;10.586;2023-05-07T08:42:07;5.90;;;4.25;;
38182;SDS011;23991;52.430;10.586;2023-05-07T08:44:36;5.27;;;4.17;;
38182;SDS011;23991;52.430;10.586;2023-05-07T08:47:05;7.28;;;4.65;;
38182;SDS011;23991;52.430;10.586;2023-05-07T08:49:31;6.90;;;4.78;;
38182;SDS011;23991;52.430;10.586;2023-05-07T08:51:58;6.22;;;4.70;;
38182;SDS011;23991;52.430;10.586;2023-05-07T08:54:24;6.50;;;4.35;;
38182;SDS011;23991;52.430;10.586;2023-05-07T08:56:50;6.70;;;4.30;;
38182;SDS011;23991;52.430;10.586;2023-05-07T08:59:16;5.50;;;4.25;;
38182;SDS011;23991;52.430;10.586;2023-05-07T09:01:42;5.10;;;4.50;;
38182;SDS011;23991;52.430;10.586;2023-05-07T09:04:07;6.50;;;4.57;;
38182;SDS011;23991;52.430;10.586;2023-05-07T09:06:34;5.68;;;4.82;;
38182;SDS011;23991;52.430;10.586;2023-05-07T09:09:00;6.28;;;4.43;;
38182;SDS011;23991;52.430;10.586;2023-05-07T09:11:26;6.22;;;4.88;;
38182;SDS011;23991;52.430;10.586;2023-05-07T09:13:53;5.57;;;4.13;;
38182;SDS011;23991;52.430;10.586;2023-05-07T09:16:20;5.15;;;4.35;;
38182;SDS011;23991;52.430;10.586;2023-05-07T09:18:46;5.90;;;4.40;;
38182;SDS011;23991;52.430;10.586;2023-05-07T09:21:15;6.00;;;4.93;;
38182;SDS011;23991;52.430;10.586;2023-05-07T09:23:42;5.57;;;4.25;;
38182;SDS011;23991;52.430;10.586;2023-05-07T09:26:08;6.25;;;5.13;;
38182;SDS011;23991;52.430;10.586;2023-05-07T09:28:40;5.70;;;4.85;;
38182;SDS011;23991;52.430;10.586;2023-05-07T09:31:06;7.15;;;4.78;;
38182;SDS011;23991;52.430;10.586;2023-05-07T09:33:32;6.03;;;5.00;;
38182;SDS011;23991;52.430;10.586;2023-05-07T09:35:58;5.90;;;5.28;;
38182;SDS011;23991;52.430;10.586;2023-05-07T09:38:23;6.95;;;5.32;;
38182;SDS011;23991;52.430;10.586;2023-05-07T09:41:01;6.82;;;5.32;;
38182;SDS011;23991;52.430;10.586;2023-05-07T09:43:32;7.70;;;5.97;;
38182;SDS011;23991;52.430;10.586;2023-05-07T09:46:01;6.65;;;4.90;;
38182;SDS011;23991;52.430;10.586;2023-05-07T09:48:30;6.47;;;5.57;;
38182;SDS011;23991;52.430;10.586;2023-05-07T09:51:01;7.23;;;5.37;;
38182;SDS011;23991;52.430;10.586;2023-05-07T09:53:31;7.75;;;5.10;;
38182;SDS011;23991;52.430;10.586;2023-05-07T09:55:58;6.43;;;5.20;;
38182;SDS011;23991;52.430;10.586;2023-05-07T09:58:25;6.13;;;5.43;;
38182;SDS011;23991;52.430;10.586;2023-05-07T10:00:51;7.65;;;5.95;;
38182;SDS011;23991;52.430;10.586;2023-05-07T10:03:17;6.75;;;5.53;;
38182;SDS011;23991;52.430;10.586;2023-05-07T10:05:45;7.70;;;5.80;;
38182;SDS011;23991;52.430;10.586;2023-05-07T10:08:12;6.50;;;5.72;;
38182;SDS011;23991;52.430;10.586;2023-05-07T10:10:38;6.20;;;4.93;;
38182;SDS011;23991;52.430;10.586;2023-05-07T10:13:04;6.88;;;6.00;;
38182;SDS011;23991;52.430;10.586;2023-05-07T10:15:35;7.63;;;6.03;;
38182;SDS011;23991;52.430;10.586;2023-05-07T10:18:00;7.28;;;5.80;;
38182;SDS011;23991;52.430;10.586;2023-05-07T10:20:27;6.32;;;5.32;;
38182;SDS011;23991;52.430;10.586;2023-05-07T10:22:53;6.07;;;5.00;;
38182;SDS011;23991;52.430;10.586;2023-05-07T10:25:23;7.07;;;5.25;;
38182;SDS011;23991;52.430;10.586;2023-05-07T10:27:50;6.47;;;5.63;;
38182;SDS011;23991;52.430;10.586;2023-05-07T10:32:47;6.93;;;5.30;;
38182;SDS011;23991;52.430;10.586;2023-05-07T10:35:23;7.20;;;5.50;;
38182;SDS011;23991;52.430;10.586;2023-05-07T10:37:51;6.57;;;5.00;;
38182;SDS011;23991;52.430;10.586;2023-05-07T10:40:17;7.60;;;5.55;;
38182;SDS011;23991;52.430;10.586;2023-05-07T10:43:01;7.05;;;5.53;;
38182;SDS011;23991;52.430;10.586;2023-05-07T10:45:30;7.40;;;4.93;;
38182;SDS011;23991;52.430;10.586;2023-05-07T10:48:13;6.72;;;5.00;;
38182;SDS011;23991;52.430;10.586;2023-05-07T10:50:43;6.97;;;5.22;;
38182;SDS011;23991;52.430;10.586;2023-05-07T10:55:43;5.38;;;4.75;;
38182;SDS011;23991;52.430;10.586;2023-05-07T11:00:47;6.93;;;4.78;;
38182;SDS011;23991;52.430;10.586;2023-05-07T11:03:13;5.40;;;4.22;;
38182;SDS011;23991;52.430;10.586;2023-05-07T11:05:40;6.35;;;4.82;;
38182;SDS011;23991;52.430;10.586;2023-05-07T11:08:06;5.70;;;4.68;;
38182;SDS011;23991;52.430;10.586;2023-05-07T11:13:18;5.13;;;4.43;;
38182;SDS011;23991;52.430;10.586;2023-05-07T11:16:04;5.93;;;5.13;;
38182;SDS011;23991;52.430;10.586;2023-05-07T11:18:50;6.47;;;4.80;;
38182;SDS011;23991;52.430;10.586;2023-05-07T11:21:33;6.50;;;5.05;;
38182;SDS011;23991;52.430;10.586;2023-05-07T11:24:08;6.95;;;5.68;;
38182;SDS011;23991;52.430;10.586;2023-05-07T11:26:48;8.68;;;6.43;;
38182;SDS011;23991;52.430;10.586;2023-05-07T11:29:18;8.37;;;6.57;;
38182;SDS011;23991;52.430;10.586;2023-05-07T11:31:48;8.82;;;6.15;;
38182;SDS011;23991;52.430;10.586;2023-05-07T11:34:15;7.65;;;5.55;;
38182;SDS011;23991;52.430;10.586;2023-05-07T11:36:49;8.75;;;5.57;;
38182;SDS011;23991;52.430;10.586;2023-05-07T11:39:25;7.40;;;5.55;;
38182;SDS011;23991;52.430;10.586;2023-05-07T11:41:56;7.00;;;4.65;;
38182;SDS011;23991;52.430;10.586;2023-05-07T11:44:22;7.00;;;5.32;;
38182;SDS011;23991;52.430;10.586;2023-05-07T11:46:48;6.55;;;5.03;;
38182;SDS011;23991;52.430;10.586;2023-05-07T11:49:14;6.68;;;5.00;;
38182;SDS011;23991;52.430;10.586;2023-05-07T11:51:40;8.02;;;5.75;;
38182;SDS011;23991;52.430;10.586;2023-05-07T11:54:07;9.23;;;6.13;;
38182;SDS011;23991;52.430;10.586;2023-05-07T11:56:34;6.78;;;5.55;;
38182;SDS011;23991;52.430;10.586;2023-05-07T11:59:00;9.15;;;5.65;;
38182;SDS011;23991;52.430;10.586;2023-05-07T12:01:26;7.32;;;5.63;;
38182;SDS011;23991;52.430;10.586;2023-05-07T12:03:51;8.85;;;6.00;;
38182;SDS011;23991;52.430;10.586;2023-05-07T12:06:17;7.43;;;5.70;;
38182;SDS011;23991;52.430;10.586;2023-05-07T12:08:44;7.10;;;4.97;;
38182;SDS011;23991;52.430;10.586;2023-05-07T12:11:13;10.10;;;5.80;;
38182;SDS011;23991;52.430;10.586;2023-05-07T12:13:41;7.00;;;5.45;;
38182;SDS011;23991;52.430;10.586;2023-05-07T12:16:06;7.38;;;4.93;;
38182;SDS011;23991;52.430;10.586;2023-05-07T12:18:32;7.60;;;4.63;;
38182;SDS011;23991;52.430;10.586;2023-05-07T12:20:59;9.70;;;5.13;;
38182;SDS011;23991;52.430;10.586;2023-05-07T12:23:25;6.03;;;4.82;;
38182;SDS011;23991;52.430;10.586;2023-05-07T12:25:51;6.82;;;4.53;;
38182;SDS011;23991;52.430;10.586;2023-05-07T12:28:17;5.95;;;4.47;;
38182;SDS011;23991;52.430;10.586;2023-05-07T12:30:44;5.38;;;4.18;;
38182;SDS011;23991;52.430;10.586;2023-05-07T12:33:11;6.70;;;4.38;;
38182;SDS011;23991;52.430;10.586;2023-05-07T12:46:46;6.72;;;4.97;;
38182;SDS011;23991;52.430;10.586;2023-05-07T12:49:12;7.68;;;4.88;;
38182;SDS011;23991;52.430;10.586;2023-05-07T12:51:37;6.00;;;4.90;;
38182;SDS011;23991;52.430;10.586;2023-05-07T12:54:03;7.20;;;5.45;;
38182;SDS011;23991;52.430;10.586;2023-05-07T12:56:30;6.95;;;5.10;;
38182;SDS011;23991;52.430;10.586;2023-05-07T12:58:59;6.55;;;4.85;;
38182;SDS011;23991;52.430;10.586;2023-05-07T13:01:28;8.05;;;4.72;;
38182;SDS011;23991;52.430;10.586;2023-05-07T13:03:55;5.00;;;4.50;;
38182;SDS011;23991;52.430;10.586;2023-05-07T13:06:25;5.68;;;4.45;;
38182;SDS011;23991;52.430;10.586;2023-05-07T13:08:51;7.40;;;4.90;;
38182;SDS011;23991;52.430;10.586;2023-05-07T13:11:16;5.22;;;4.53;;
38182;SDS011;23991;52.430;10.586;2023-05-07T13:13:42;5.93;;;4.32;;
38182;SDS011;23991;52.430;10.586;2023-05-07T13:16:09;6.00;;;4.28;;
38182;SDS011;23991;52.430;10.586;2023-05-07T13:18:36;7.28;;;4.20;;
38182;SDS011;23991;52.430;10.586;2023-05-07T13:21:03;6.03;;;4.07;;
38182;SDS011;23991;52.430;10.586;2023-05-07T13:23:59;9.13;;;4.45;;
38182;SDS011;23991;52.430;10.586;2023-05-07T13:26:25;7.95;;;4.47;;
38182;SDS011;23991;52.430;10.586;2023-05-07T13:28:52;4.85;;;4.05;;
38182;SDS011;23991;52.430;10.586;2023-05-07T13:31:19;5.50;;;4.03;;
38182;SDS011;23991;52.430;10.586;2023-05-07T13:33:46;5.90;;;4.18;;
38182;SDS011;23991;52.430;10.586;2023-05-07T13:36:16;5.28;;;4.15;;
38182;SDS011;23991;52.430;10.586;2023-05-07T13:38:41;5.13;;;4.10;;
38182;SDS011;23991;52.430;10.586;2023-05-07T13:41:07;5.60;;;4.30;;
38182;SDS011;23991;52.430;10.586;2023-05-07T13:43:32;5.20;;;4.05;;
38182;SDS011;23991;52.430;10.586;2023-05-07T13:45:58;4.90;;;3.72;;
38182;SDS011;23991;52.430;10.586;2023-05-07T13:48:24;5.82;;;3.97;;
38182;SDS011;23991;52.430;10.586;2023-05-07T13:50:50;6.15;;;4.38;;
38182;SDS011;23991;52.430;10.586;2023-05-07T13:53:16;4.68;;;4.18;;
38182;SDS011;23991;52.430;10.586;2023-05-07T13:55:43;4.75;;;3.63;;
38182;SDS011;23991;52.430;10.586;2023-05-07T14:05:17;6.95;;;4.60;;
38182;SDS011;23991;52.430;10.586;2023-05-07T14:07:43;4.68;;;3.80;;
38182;SDS011;23991;52.430;10.586;2023-05-07T14:10:08;6.22;;;4.68;;
38182;SDS011;23991;52.430;10.586;2023-05-07T14:22:55;6.82;;;4.30;;
38182;SDS011;23991;52.430;10.586;2023-05-07T14:25:21;5.60;;;4.25;;
38182;SDS011;23991;52.430;10.586;2023-05-07T14:27:47;5.82;;;4.45;;
38182;SDS011;23991;52.430;10.586;2023-05-07T14:30:12;5.68;;;4.20;;
38182;SDS011;23991;52.430;10.586;2023-05-07T14:32:38;5.65;;;4.13;;
38182;SDS011;23991;52.430;10.586;2023-05-07T14:35:03;4.38;;;3.55;;
38182;SDS011;23991;52.430;10.586;2023-05-07T14:37:29;5.55;;;4.07;;
38182;SDS011;23991;52.430;10.586;2023-05-07T14:39:55;6.18;;;3.95;;
38182;SDS011;23991;52.430;10.586;2023-05-07T14:42:20;5.80;;;3.45;;
38182;SDS011;23991;52.430;10.586;2023-05-07T14:44:46;5.32;;;4.30;;
38182;SDS011;23991;52.430;10.586;2023-05-07T14:47:13;6.80;;;5.00;;
38182;SDS011;23991;52.430;10.586;2023-05-07T14:49:38;11.82;;;7.65;;
38182;SDS011;23991;52.430;10.586;2023-05-07T14:52:05;7.43;;;5.18;;
38182;SDS011;23991;52.430;10.586;2023-05-07T14:54:33;4.80;;;3.85;;
38182;SDS011;23991;52.430;10.586;2023-05-07T14:57:00;4.63;;;3.65;;
38182;SDS011;23991;52.430;10.586;2023-05-07T14:59:26;5.93;;;3.58;;
38182;SDS011;23991;52.430;10.586;2023-05-07T15:01:52;4.10;;;3.25;;
38182;SDS011;23991;52.430;10.586;2023-05-07T15:04:17;5.18;;;3.83;;